Time;durP1;ratioP1;P1;durP2;ratioP2;P2;SDS_P1;SDS_P2;PMS_P1;PMS_P2;Temp;Humidity;BMP_temperature;BMP_pressure;BME280_temperature;BME280_humidity;BME280_pressure;Samples;Min_cycle;Max_cycle;Signal;HPM_P1;HPM_P2
2022/06/24 00:02:22;;;;;;;13.10;9.13;;;;;;;14.72;100.00;99410.50;1754205;80;21040;-59
2022/06/24 00:04:55;;;;;;;10.90;8.93;;;;;;;14.71;100.00;99406.30;1746417;80;21080;-66
2022/06/24 00:07:22;;;;;;;12.87;9.00;;;;;;;14.71;100.00;99410.23;1765790;80;21383;-61
2022/06/24 00:09:49;;;;;;;13.63;9.07;;;;;;;14.72;100.00;99409.20;1782665;80;21033;-59
2022/06/24 00:12:20;;;;;;;11.07;9.57;;;;;;;14.70;100.00;99400.77;1773187;80;21454;-59
2022/06/24 00:14:59;;;;;;;12.58;8.78;;;;;;;14.69;100.00;99403.61;1769109;80;21011;-60
2022/06/24 00:17:30;;;;;;;14.73;9.10;;;;;;;14.76;100.00;99405.59;1774320;80;21717;-60
2022/06/24 00:20:03;;;;;;;13.37;9.07;;;;;;;14.74;100.00;99407.15;1780591;80;21368;-60
2022/06/24 00:22:32;;;;;;;14.07;9.50;;;;;;;14.81;100.00;99411.77;1773239;80;20996;-63
2022/06/24 00:25:14;;;;;;;11.13;8.40;;;;;;;14.80;100.00;99411.45;1778328;80;21907;-59
2022/06/24 00:27:41;;;;;;;;;;;;;;;14.78;100.00;99404.86;1768168;80;21510;-60
2022/06/24 00:30:12;;;;;;;12.87;8.90;;;;;;;14.69;100.00;99400.98;1783045;80;20119;-59
2022/06/24 00:32:40;;;;;;;;;;;;;;;14.68;100.00;99401.50;1783223;80;21093;-60
2022/06/24 00:35:13;;;;;;;11.80;8.97;;;;;;;14.64;100.00;99405.62;1759721;79;20138;-58
2022/06/24 00:37:42;;;;;;;10.07;7.30;;;;;;;14.58;100.00;99403.90;1766793;80;21629;-59
2022/06/24 00:40:17;;;;;;;10.23;6.80;;;;;;;14.57;100.00;99399.17;1781330;80;21037;-67
2022/06/24 00:42:46;;;;;;;12.17;7.47;;;;;;;14.52;100.00;99402.22;1777442;80;21463;-59
2022/06/24 00:45:41;;;;;;;10.10;7.47;;;;;;;14.54;100.00;99404.88;1783797;80;21160;-58
2022/06/24 00:48:14;;;;;;;9.97;7.00;;;;;;;14.62;100.00;99415.53;1765251;80;20894;-62
2022/06/24 00:50:45;;;;;;;16.97;6.70;;;;;;;14.56;100.00;99416.46;1721216;82;21063;-68
2022/06/24 00:53:12;;;;;;;7.78;5.00;;;;;;;14.59;100.00;99422.05;1767686;80;21051;-59
2022/06/24 00:55:43;;;;;;;8.20;5.53;;;;;;;14.57;100.00;99417.53;1763233;80;21575;-60
2022/06/24 00:58:15;;;;;;;11.60;5.67;;;;;;;14.53;100.00;99423.47;1746737;80;21265;-60
2022/06/24 01:00:45;;;;;;;7.00;4.93;;;;;;;14.51;100.00;99426.34;1754931;80;21612;-62
2022/06/24 01:03:14;;;;;;;7.87;5.30;;;;;;;14.43;100.00;99420.58;1775556;80;21061;-67
2022/06/24 01:05:42;;;;;;;6.73;5.17;;;;;;;14.47;100.00;99428.28;1765806;80;21066;-58
2022/06/24 01:08:12;;;;;;;8.77;5.20;;;;;;;14.34;100.00;99431.42;1766934;80;21153;-60
2022/06/24 01:10:40;;;;;;;8.50;5.90;;;;;;;14.20;100.00;99428.72;1776136;80;21224;-66
2022/06/24 01:13:09;;;;;;;10.90;6.33;;;;;;;14.23;100.00;99425.66;1764469;80;21058;-62
2022/06/24 01:15:38;;;;;;;7.97;5.37;;;;;;;14.15;100.00;99427.30;1776204;80;21037;-59
2022/06/24 01:18:07;;;;;;;8.33;5.13;;;;;;;14.18;100.00;99420.30;1753281;80;20951;-58
2022/06/24 01:20:34;;;;;;;7.00;5.37;;;;;;;14.21;100.00;99424.30;1772531;80;21075;-67
2022/06/24 01:23:01;;;;;;;7.27;4.90;;;;;;;14.29;100.00;99420.83;1768590;80;21262;-61
2022/06/24 01:25:32;;;;;;;8.43;5.07;;;;;;;14.31;100.00;99422.69;1758692;80;21086;-59
2022/06/24 01:28:00;;;;;;;6.90;5.50;;;;;;;14.34;100.00;99420.93;1755929;80;21604;-60
2022/06/24 01:30:28;;;;;;;7.60;4.93;;;;;;;14.41;100.00;99416.09;1766706;80;22424;-62
2022/06/24 01:32:55;;;;;;;7.37;5.10;;;;;;;14.45;100.00;99410.16;1761852;80;21442;-65
2022/06/24 01:35:22;;;;;;;7.90;5.27;;;;;;;14.48;100.00;99414.16;1754341;80;21120;-59
2022/06/24 01:37:49;;;;;;;10.23;5.97;;;;;;;14.46;100.00;99422.76;1773559;80;21789;-60
2022/06/24 01:40:16;;;;;;;7.17;5.00;;;;;;;14.50;100.00;99431.79;1766680;80;21002;-59
2022/06/24 01:42:44;;;;;;;6.40;4.80;;;;;;;14.55;100.00;99425.36;1757601;80;21023;-62
2022/06/24 01:45:11;;;;;;;7.60;4.80;;;;;;;14.52;100.00;99421.89;1766344;80;21140;-66
2022/06/24 01:47:39;;;;;;;7.97;4.83;;;;;;;14.70;100.00;99428.31;1772209;80;21150;-60
2022/06/24 01:50:08;;;;;;;8.93;5.40;;;;;;;14.77;100.00;99424.23;1773324;80;21038;-60
2022/06/24 01:52:35;;;;;;;7.10;5.40;;;;;;;14.77;100.00;99426.38;1756479;80;20928;-60
2022/06/24 01:55:02;;;;;;;7.33;5.27;;;;;;;14.82;100.00;99426.98;1775405;80;21069;-67
2022/06/24 01:57:29;;;;;;;7.10;5.17;;;;;;;14.87;100.00;99431.02;1763468;80;21828;-62
2022/06/24 01:59:59;;;;;;;8.57;5.70;;;;;;;14.97;100.00;99435.69;1780514;80;21866;-59
2022/06/24 02:02:26;;;;;;;10.00;5.70;;;;;;;15.04;100.00;99436.36;1755007;80;21576;-59
2022/06/24 02:04:54;;;;;;;8.90;5.47;;;;;;;14.94;100.00;99441.39;1758751;80;21031;-66
2022/06/24 02:07:21;;;;;;;8.60;4.67;;;;;;;15.01;100.00;99436.30;1761263;81;21387;-59
2022/06/24 02:15:16;;;;;;;8.67;5.30;;;;;;;15.26;100.00;99430.73;1736713;81;21269;-61
2022/06/24 02:17:44;;;;;;;7.97;5.17;;;;;;;15.29;100.00;99435.52;1750004;79;21046;-61
2022/06/24 02:20:11;;;;;;;8.27;4.87;;;;;;;15.31;100.00;99434.00;1748203;80;20916;-65
2022/06/24 02:22:38;;;;;;;8.53;5.47;;;;;;;15.42;100.00;99429.70;1758983;79;20964;-66
2022/06/24 02:25:06;;;;;;;9.30;5.97;;;;;;;15.58;100.00;99427.66;1744613;81;21587;-59
2022/06/24 02:27:34;;;;;;;7.47;5.20;;;;;;;15.60;100.00;99429.52;1755992;81;21704;-59
2022/06/24 02:30:01;;;;;;;7.27;5.03;;;;;;;15.53;100.00;99424.92;1746782;80;20995;-64
2022/06/24 02:32:28;;;;;;;7.47;5.30;;;;;;;15.45;100.00;99428.72;1737488;79;21584;-61
2022/06/24 02:34:55;;;;;;;7.73;5.37;;;;;;;15.47;100.00;99425.88;1757053;81;21051;-61
2022/06/24 02:37:22;;;;;;;9.40;5.07;;;;;;;15.47;100.00;99426.67;1744219;79;22403;-62
2022/06/24 02:39:49;;;;;;;6.50;5.30;;;;;;;15.43;100.00;99426.07;1760871;81;21010;-65
2022/06/24 02:42:16;;;;;;;9.03;5.90;;;;;;;15.50;100.00;99431.98;1756342;79;21074;-69
2022/06/24 02:44:43;;;;;;;12.73;5.70;;;;;;;15.53;100.00;99427.05;1757421;79;21014;-69
2022/06/24 02:47:10;;;;;;;11.80;6.00;;;;;;;15.60;100.00;99421.63;1755934;81;21460;-61
2022/06/24 02:49:38;;;;;;;8.13;5.70;;;;;;;15.65;100.00;99429.66;1742489;81;21252;-62
2022/06/24 02:52:08;;;;;;;8.97;6.03;;;;;;;15.68;100.00;99426.56;1743798;81;21552;-59
2022/06/24 02:54:35;;;;;;;9.27;5.90;;;;;;;15.77;100.00;99419.88;1750203;81;21056;-62
2022/06/24 02:57:03;;;;;;;9.77;6.20;;;;;;;15.89;100.00;99420.32;1749814;79;21536;-60
2022/06/24 02:59:30;;;;;;;10.73;5.80;;;;;;;15.99;100.00;99425.23;1739951;81;21503;-59
2022/06/24 03:01:57;;;;;;;11.57;5.40;;;;;;;16.16;100.00;99422.59;1737003;81;21161;-61
2022/06/24 03:04:25;;;;;;;8.60;5.67;;;;;;;16.28;100.00;99425.92;1744632;79;21063;-59
2022/06/24 03:06:52;;;;;;;10.23;5.80;;;;;;;16.33;100.00;99417.83;1778147;79;21046;-57
2022/06/24 03:09:19;;;;;;;7.27;5.17;;;;;;;16.43;100.00;99408.77;1765495;80;21009;-59
2022/06/24 03:11:46;;;;;;;9.67;6.23;;;;;;;16.43;100.00;99410.09;1760162;80;21066;-59
2022/06/24 03:14:13;;;;;;;10.50;6.27;;;;;;;16.51;100.00;99412.30;1772942;80;21406;-61
2022/06/24 03:16:40;;;;;;;8.93;5.70;;;;;;;16.59;100.00;99414.52;1785924;80;20959;-59
2022/06/24 03:19:07;;;;;;;8.50;5.30;;;;;;;16.72;100.00;99422.07;1766857;80;21312;-67
2022/06/24 03:21:34;;;;;;;6.60;4.77;;;;;;;16.92;100.00;99422.08;1769547;80;21064;-58
2022/06/24 03:24:02;;;;;;;7.47;5.43;;;;;;;17.07;100.00;99425.42;1783075;80;20967;-59
2022/06/24 03:26:29;;;;;;;9.63;5.17;;;;;;;17.14;100.00;99415.50;1770231;80;21317;-66
2022/06/24 03:28:57;;;;;;;9.93;5.70;;;;;;;17.10;100.00;99413.87;1778846;80;20895;-66
2022/06/24 03:31:24;;;;;;;7.60;4.70;;;;;;;17.29;100.00;99406.97;1768247;80;21074;-58
2022/06/24 03:33:53;;;;;;;7.67;4.73;;;;;;;17.33;100.00;99409.38;1774168;80;21113;-58
2022/06/24 03:36:21;;;;;;;8.47;5.63;;;;;;;17.50;100.00;99419.28;1783802;80;21018;-58
2022/06/24 03:38:48;;;;;;;7.87;5.07;;;;;;;17.80;100.00;99408.78;1776296;80;21158;-59
2022/06/24 03:41:15;;;;;;;7.63;4.70;;;;;;;18.26;100.00;99409.13;1775619;80;21924;-63
2022/06/24 03:43:42;;;;;;;7.10;4.40;;;;;;;18.99;100.00;99414.56;1781913;80;21829;-59
2022/06/24 03:46:09;;;;;;;7.10;4.23;;;;;;;19.98;100.00;99405.48;1767078;80;21080;-57
2022/06/24 03:48:36;;;;;;;8.97;4.70;;;;;;;21.02;100.00;99402.32;1767114;80;21041;-68
2022/06/24 03:51:03;;;;;;;7.17;4.60;;;;;;;22.19;100.00;99392.24;1771194;80;21779;-58
2022/06/24 03:53:31;;;;;;;8.20;4.87;;;;;;;23.53;100.00;99392.99;1768757;80;21010;-59
2022/06/24 03:55:59;;;;;;;6.70;4.80;;;;;;;24.75;100.00;99390.62;1773246;80;21078;-57
2022/06/24 03:58:26;;;;;;;7.63;5.37;;;;;;;25.68;100.00;99390.97;1767842;80;21029;-58
2022/06/24 04:01:00;;;;;;;7.35;5.22;;;;;;;26.62;100.00;99389.63;1788560;80;21007;-59
2022/06/24 04:03:27;;;;;;;9.15;5.00;;;;;;;27.68;95.60;99389.39;1776958;80;21336;-61
2022/06/24 04:05:54;;;;;;;7.95;5.53;;;;;;;28.13;70.14;99391.90;1786018;80;21367;-57
2022/06/24 04:08:21;;;;;;;7.47;5.33;;;;;;;28.13;70.14;99391.90;1762650;80;21494;-57
2022/06/24 04:10:50;;;;;;;9.50;5.47;;;;;;;27.70;67.33;99386.64;1762043;80;20995;-62
2022/06/24 04:13:17;;;;;;;9.33;5.22;;;;;;;27.27;69.49;99391.47;1752565;80;21066;-59
2022/06/24 04:15:51;;;;;;;7.53;5.20;;;;;;;27.28;70.79;99398.97;1761045;80;21247;-57
2022/06/24 04:18:18;;;;;;;8.93;5.67;;;;;;;27.52;69.37;99396.58;1777953;80;21035;-58
2022/06/24 04:20:45;;;;;;;6.92;5.72;;;;;;;27.71;65.13;99405.61;1774304;80;20998;-66
2022/06/24 04:23:13;;;;;;;8.25;5.90;;;;;;;27.91;63.57;99410.09;1763094;80;21063;-57
2022/06/24 04:25:40;;;;;;;9.88;5.35;;;;;;;28.24;62.98;99407.08;1772786;80;21481;-65
2022/06/24 04:28:08;;;;;;;8.25;4.95;;;;;;;28.74;59.83;99407.72;1765184;80;21563;-57
2022/06/24 04:30:35;;;;;;;7.45;5.45;;;;;;;29.21;56.77;99412.16;1775732;80;21032;-58
2022/06/24 04:33:03;;;;;;;8.65;5.25;;;;;;;29.77;55.02;99420.14;1778136;80;21007;-65
2022/06/24 04:35:30;;;;;;;7.03;4.35;;;;;;;29.99;50.53;99412.25;1764101;80;20994;-56
2022/06/24 04:37:57;;;;;;;7.28;4.95;;;;;;;29.97;50.59;99413.73;1764461;80;21034;-59
2022/06/24 04:40:25;;;;;;;6.33;4.12;;;;;;;29.92;50.61;99413.92;1754296;80;21846;-57
2022/06/24 04:42:52;;;;;;;9.60;4.42;;;;;;;30.37;49.20;99414.46;1757134;80;21504;-57
2022/06/24 04:45:19;;;;;;;5.85;3.37;;;;;;;31.09;48.18;99410.70;1775650;80;21112;-57
2022/06/24 04:47:47;;;;;;;4.72;3.40;;;;;;;31.85;46.03;99403.02;1771268;80;21300;-65
2022/06/24 04:50:14;;;;;;;6.45;3.65;;;;;;;32.49;42.35;99409.22;1769993;80;21027;-57
2022/06/24 04:52:43;;;;;;;6.12;3.50;;;;;;;32.96;40.75;99411.08;1776984;80;21057;-57
2022/06/24 04:55:10;;;;;;;5.40;3.67;;;;;;;33.35;38.90;99419.18;1777356;80;21549;-58
2022/06/24 04:57:38;;;;;;;5.53;3.40;;;;;;;33.75;38.14;99423.42;1757087;80;21116;-58
2022/06/24 05:00:08;;;;;;;4.47;3.27;;;;;;;34.34;37.14;99416.72;1775911;80;21610;-63
2022/06/24 05:02:36;;;;;;;;;;;;;;;34.97;35.91;99412.03;1777601;80;21470;-57
2022/06/24 05:05:03;;;;;;;4.25;3.10;;;;;;;35.48;33.91;99400.64;1777638;80;21212;-58
2022/06/24 05:07:31;;;;;;;4.22;2.95;;;;;;;35.86;33.07;99396.00;1764424;79;21529;-56
2022/06/24 05:09:58;;;;;;;3.00;2.25;;;;;;;36.12;32.25;99403.22;1733863;81;21606;-58
2022/06/24 05:12:27;;;;;;;3.85;2.33;;;;;;;36.54;31.09;99408.19;1709525;83;21493;-56
2022/06/24 05:14:55;;;;;;;3.58;2.20;;;;;;;36.65;30.20;99419.12;1734517;81;22146;-57
2022/06/24 05:17:24;;;;;;;4.97;2.45;;;;;;;36.80;29.88;99416.48;1721273;82;21156;-58
2022/06/24 05:19:51;;;;;;;3.95;2.52;;;;;;;37.00;29.50;99412.33;1749678;81;20985;-57
2022/06/24 05:22:19;;;;;;;2.90;2.20;;;;;;;36.99;29.05;99403.41;1761264;80;20985;-58
2022/06/24 05:24:46;;;;;;;3.95;2.33;;;;;;;37.10;28.93;99410.25;1713297;82;21067;-56
2022/06/24 05:27:13;;;;;;;3.37;2.30;;;;;;;37.29;28.67;99409.14;1736669;81;21483;-56
2022/06/24 05:29:41;;;;;;;3.72;2.50;;;;;;;37.54;28.44;99416.02;1698019;83;21094;-57
2022/06/24 05:32:09;;;;;;;5.05;2.20;;;;;;;37.91;27.17;99419.02;1731735;82;20940;-60
2022/06/24 05:34:36;;;;;;;3.95;2.98;;;;;;;38.13;26.95;99417.84;1733396;81;20956;-64
2022/06/24 05:37:04;;;;;;;2.80;2.20;;;;;;;38.43;26.98;99425.62;1757193;80;21498;-56
2022/06/24 05:39:31;;;;;;;3.27;2.27;;;;;;;38.58;25.67;99422.30;1695295;83;21495;-56
2022/06/24 05:41:58;;;;;;;2.98;2.05;;;;;;;38.51;25.63;99424.25;1758013;81;22292;-57
2022/06/24 05:44:25;;;;;;;2.75;2.00;;;;;;;38.37;26.00;99427.18;1692265;83;21316;-62
2022/06/24 05:46:54;;;;;;;2.70;2.25;;;;;;;38.37;25.41;99427.77;1742089;81;20963;-56
2022/06/24 05:49:21;;;;;;;2.58;1.90;;;;;;;38.39;25.78;99423.50;1713259;83;21459;-57
2022/06/24 05:51:49;;;;;;;2.72;2.20;;;;;;;38.52;24.48;99428.52;1739098;81;21016;-57
2022/06/24 05:57:01;;;;;;;2.67;1.82;;;;;;;38.92;24.61;99427.29;1733417;82;20979;-57
2022/06/24 05:59:28;;;;;;;3.40;2.12;;;;;;;39.39;24.10;99416.95;1711486;83;22322;-57
2022/06/24 06:01:55;;;;;;;2.98;2.10;;;;;;;39.80;23.58;99416.33;1695548;83;21116;-58
2022/06/24 06:04:22;;;;;;;2.67;1.95;;;;;;;39.99;23.31;99412.28;1695416;83;20956;-65
2022/06/24 06:06:51;;;;;;;3.08;2.20;;;;;;;40.06;23.46;99410.86;1720789;81;22297;-58
2022/06/24 06:09:18;;;;;;;2.90;1.90;;;;;;;39.79;23.03;99420.25;1765975;80;20991;-56
2022/06/24 06:11:45;;;;;;;2.12;1.90;;;;;;;39.59;23.40;99415.30;1761372;80;21522;-58
2022/06/24 06:14:12;;;;;;;3.17;2.60;;;;;;;39.68;23.58;99421.69;1782384;80;20960;-57
2022/06/24 06:16:41;;;;;;;3.00;1.95;;;;;;;39.75;23.52;99421.64;1774160;80;21062;-58
2022/06/24 06:19:08;;;;;;;2.62;2.12;;;;;;;39.72;23.38;99418.34;1760928;80;21673;-60
2022/06/24 06:21:36;;;;;;;3.17;1.80;;;;;;;39.72;23.53;99415.61;1759390;80;21024;-57
2022/06/24 06:24:04;;;;;;;2.67;1.92;;;;;;;39.82;23.57;99418.86;1775132;80;21579;-57
2022/06/24 06:26:31;;;;;;;2.83;2.20;;;;;;;39.82;23.36;99413.41;1782661;80;21039;-64
2022/06/24 06:28:58;;;;;;;2.60;2.00;;;;;;;39.65;23.64;99410.95;1783821;80;21376;-58
2022/06/24 06:31:25;;;;;;;2.83;2.47;;;;;;;39.40;23.48;99408.40;1781049;80;21158;-57
2022/06/24 06:33:52;;;;;;;3.52;2.33;;;;;;;39.12;23.70;99398.37;1775091;80;21505;-57
2022/06/24 06:36:20;;;;;;;3.55;2.35;;;;;;;38.99;24.27;99403.33;1772329;80;21123;-60
2022/06/24 06:38:46;;;;;;;3.15;1.85;;;;;;;38.93;24.19;99396.91;1762538;80;21055;-64
2022/06/24 06:41:17;;;;;;;4.08;2.12;;;;;;;38.75;24.26;99393.44;1765081;80;21431;-57
2022/06/24 06:43:44;;;;;;;;;;;;;;;38.49;24.67;99384.37;1756545;80;21933;-57
2022/06/24 06:46:11;;;;;;;7.25;1.77;;;;;;;38.39;24.74;99379.94;1763084;80;20157;-57
2022/06/24 06:48:43;;;;;;;2.98;1.80;;;;;;;38.18;24.90;99379.34;1766797;80;21055;-64
2022/06/24 06:51:10;;;;;;;2.62;2.20;;;;;;;38.06;25.25;99374.90;1770120;80;21552;-62
2022/06/24 06:53:37;;;;;;;4.28;2.20;;;;;;;37.97;25.02;99381.52;1766177;80;21092;-57
2022/06/24 06:56:05;;;;;;;2.27;1.80;;;;;;;37.60;25.19;99383.21;1759801;80;21863;-57
2022/06/24 06:58:32;;;;;;;3.15;1.52;;;;;;;37.06;25.56;99382.88;1765327;80;21571;-64
2022/06/24 07:00:59;;;;;;;5.60;1.80;;;;;;;36.49;26.53;99381.41;1776042;80;21490;-58
2022/06/24 07:03:26;;;;;;;2.83;1.40;;;;;;;35.83;26.67;99380.47;1777876;80;21543;-58
2022/06/24 07:05:54;;;;;;;2.98;1.35;;;;;;;35.31;27.52;99384.41;1722430;82;21090;-57
2022/06/24 07:08:23;;;;;;;3.95;1.62;;;;;;;34.91;27.98;99379.64;1758352;80;21145;-57
2022/06/24 07:10:50;;;;;;;3.20;1.40;;;;;;;34.90;28.64;99386.22;1758801;80;21482;-64
2022/06/24 07:13:18;;;;;;;2.85;1.60;;;;;;;34.97;28.96;99380.89;1756501;80;21572;-58
2022/06/24 07:15:46;;;;;;;3.92;1.45;;;;;;;35.43;28.16;99373.89;1766050;80;21082;-57
2022/06/24 07:18:14;;;;;;;2.17;1.40;;;;;;;36.04;27.84;99377.97;1756488;80;21038;-58
2022/06/24 07:20:43;;;;;;;2.30;1.30;;;;;;;36.44;26.56;99373.58;1775639;80;21249;-56
2022/06/24 07:23:10;;;;;;;2.60;1.27;;;;;;;36.46;26.76;99382.16;1784798;80;20884;-57
2022/06/24 07:25:38;;;;;;;2.02;1.20;;;;;;;36.48;26.53;99379.86;1766840;80;21090;-57
2022/06/24 07:28:06;;;;;;;1.65;1.00;;;;;;;36.44;26.18;99373.58;1777227;80;20998;-56
2022/06/24 07:30:33;;;;;;;2.35;1.30;;;;;;;36.21;25.87;99375.17;1768034;80;21064;-56
2022/06/24 07:33:02;;;;;;;4.37;1.10;;;;;;;35.73;26.30;99379.23;1717764;83;21549;-57
2022/06/24 07:35:30;;;;;;;2.12;1.05;;;;;;;35.33;26.52;99379.96;1759403;80;21102;-56
2022/06/24 07:37:58;;;;;;;1.95;1.00;;;;;;;34.73;27.33;99391.59;1777301;80;21626;-57
2022/06/24 07:40:25;;;;;;;3.83;1.40;;;;;;;33.87;28.08;99388.12;1768865;80;21063;-56
2022/06/24 07:42:53;;;;;;;1.87;1.30;;;;;;;33.23;28.70;99388.27;1761347;80;20962;-60
2022/06/24 07:45:21;;;;;;;4.33;1.65;;;;;;;32.44;29.77;99394.09;1761562;80;21155;-64
2022/06/24 07:47:47;;;;;;;2.60;1.42;;;;;;;31.93;30.78;99399.94;1786412;80;20943;-58
2022/06/24 07:50:14;;;;;;;3.27;1.40;;;;;;;31.98;31.51;99392.40;1774546;80;21039;-58
2022/06/24 07:52:42;;;;;;;2.72;1.57;;;;;;;32.16;31.23;99382.59;1763792;80;21427;-64
2022/06/24 07:57:54;;;;;;;3.72;1.72;;;;;;;32.40;31.37;99370.88;1758041;80;21159;-59
2022/06/24 08:00:22;;;;;;;3.02;1.50;;;;;;;31.94;31.24;99373.23;1785987;80;21000;-57
2022/06/24 08:02:49;;;;;;;2.65;1.80;;;;;;;31.50;31.79;99376.69;1777954;80;21517;-67
2022/06/24 08:05:16;;;;;;;2.60;1.42;;;;;;;31.31;32.43;99381.95;1757667;80;21051;-65
2022/06/24 08:07:44;;;;;;;2.92;1.57;;;;;;;31.15;32.39;99374.36;1768115;80;21253;-58
2022/06/24 08:10:12;;;;;;;2.72;1.62;;;;;;;30.95;33.13;99376.89;1779476;80;21196;-61
2022/06/24 08:12:41;;;;;;;6.00;1.80;;;;;;;30.78;33.80;99382.52;1774292;79;21454;-56
2022/06/24 08:15:08;;;;;;;3.20;1.50;;;;;;;30.68;34.04;99384.29;1778266;80;20935;-63
2022/06/24 08:17:36;;;;;;;3.08;1.60;;;;;;;30.57;34.64;99388.00;1780200;80;21553;-59
2022/06/24 08:20:04;;;;;;;1.85;1.40;;;;;;;30.52;35.09;99383.64;1761905;80;21611;-56
2022/06/24 08:22:31;;;;;;;4.10;1.52;;;;;;;30.56;35.63;99382.97;1786409;80;21551;-56
2022/06/24 08:24:58;;;;;;;3.27;1.70;;;;;;;30.80;35.43;99375.45;1789492;80;20915;-57
2022/06/24 08:27:27;;;;;;;2.12;1.50;;;;;;;31.11;34.76;99376.17;1766271;80;21041;-56
2022/06/24 08:29:54;;;;;;;2.92;1.82;;;;;;;31.29;34.40;99373.95;1776200;80;22061;-56
2022/06/24 08:32:22;;;;;;;2.37;1.67;;;;;;;31.62;34.27;99365.06;1785623;80;21019;-56
2022/06/24 08:34:50;;;;;;;3.12;1.50;;;;;;;32.05;33.17;99362.14;1763164;80;21162;-57
2022/06/24 08:37:17;;;;;;;3.35;1.80;;;;;;;32.10;32.53;99355.13;1756268;80;21070;-62
2022/06/24 08:39:45;;;;;;;5.45;1.55;;;;;;;32.16;32.35;99353.74;1782199;79;21034;-56
2022/06/24 08:42:13;;;;;;;2.60;1.60;;;;;;;32.33;32.47;99352.58;1786720;80;21466;-58
2022/06/24 08:44:42;;;;;;;3.17;1.60;;;;;;;32.56;31.92;99354.08;1781657;80;21125;-56
2022/06/24 08:47:15;;;;;;;3.15;1.90;;;;;;;32.29;32.02;99349.59;1768144;79;22312;-64
2022/06/24 08:49:42;;;;;;;2.62;1.70;;;;;;;31.95;32.19;99343.22;1778325;80;21769;-59
2022/06/24 08:52:11;;;;;;;3.70;1.65;;;;;;;32.06;33.38;99343.48;1770770;80;20979;-57
2022/06/24 08:54:41;;;;;;;2.37;1.47;;;;;;;32.52;32.03;99336.26;1787909;80;20990;-56
2022/06/24 08:57:08;;;;;;;4.47;2.70;;;;;;;32.77;31.39;99334.88;1781107;80;21103;-58
2022/06/24 08:59:36;;;;;;;3.30;2.52;;;;;;;32.80;32.01;99321.22;1776269;80;22364;-56
2022/06/24 09:02:04;;;;;;;3.92;1.90;;;;;;;33.26;31.13;99326.19;1761381;80;20984;-56
2022/06/24 09:04:34;;;;;;;5.10;2.60;;;;;;;33.94;30.66;99312.51;1774138;80;21054;-60
2022/06/24 09:07:02;;;;;;;2.40;1.57;;;;;;;34.45;29.35;99312.12;1752065;80;21773;-58
2022/06/24 09:09:29;;;;;;;3.65;1.90;;;;;;;34.72;29.67;99318.30;1783700;80;21097;-56
2022/06/24 09:12:00;;;;;;;3.35;1.70;;;;;;;34.88;29.24;99311.33;1773829;80;21136;-57
2022/06/24 09:14:45;;;;;;;3.90;1.60;;;;;;;35.04;28.32;99311.14;1744094;80;21055;-59
2022/06/24 09:17:12;;;;;;;4.05;1.98;;;;;;;35.22;28.39;99299.14;1786157;80;21053;-58
2022/06/24 09:19:41;;;;;;;1.95;1.35;;;;;;;35.60;28.47;99291.77;1772483;80;21105;-57
2022/06/24 09:22:10;;;;;;;2.85;1.40;;;;;;;35.90;27.70;99293.75;1742446;80;21074;-58
2022/06/24 09:24:45;;;;;;;2.65;1.67;;;;;;;36.03;27.60;99308.61;1681456;83;21242;-57
2022/06/24 09:27:12;;;;;;;2.30;1.40;;;;;;;36.13;27.56;99311.75;1743885;81;20919;-57
2022/06/24 09:29:49;;;;;;;2.27;1.27;;;;;;;36.32;27.52;99310.12;1739309;80;21039;-57
2022/06/24 09:32:18;;;;;;;2.27;1.30;;;;;;;36.41;27.46;99307.08;1756962;80;21664;-59
2022/06/24 09:35:06;;;;;;;2.77;1.52;;;;;;;36.29;27.04;99302.17;1694482;83;21463;-58
2022/06/24 09:37:50;;;;;;;4.40;1.30;;;;;;;36.28;26.88;99302.54;1754805;80;21238;-65
2022/06/24 09:40:29;;;;;;;2.40;1.27;;;;;;;35.87;25.64;99295.08;1772566;80;21047;-58
2022/06/24 09:43:00;;;;;;;1.98;1.10;;;;;;;35.24;25.03;99300.92;1765871;80;21492;-58
2022/06/24 09:45:48;;;;;;;1.50;1.10;;;;;;;34.29;26.34;99311.53;1769664;80;21064;-66
2022/06/24 09:48:33;;;;;;;3.37;1.67;;;;;;;33.41;26.18;99305.63;1775280;80;21042;-59
2022/06/24 09:51:05;;;;;;;5.10;1.70;;;;;;;32.35;27.05;99305.02;1775285;80;21220;-61
2022/06/24 09:53:36;;;;;;;1.98;1.40;;;;;;;31.79;28.70;99310.64;1768500;80;21526;-57
2022/06/24 09:56:04;;;;;;;1.82;1.22;;;;;;;31.50;28.79;99308.58;1776365;80;20959;-58
2022/06/24 09:58:31;;;;;;;1.47;0.90;;;;;;;31.16;28.44;99320.16;1782108;79;21013;-58
2022/06/24 10:00:58;;;;;;;2.90;1.25;;;;;;;31.00;29.66;99319.34;1764875;79;21015;-58
2022/06/24 10:03:26;;;;;;;1.87;1.20;;;;;;;31.14;29.34;99325.13;1766707;80;21251;-59
2022/06/24 10:05:53;;;;;;;2.27;1.15;;;;;;;31.06;28.94;99323.34;1773461;80;21050;-58
2022/06/24 10:08:22;;;;;;;1.90;0.88;;;;;;;31.23;29.72;99323.62;1779195;80;21054;-60
2022/06/24 10:10:54;;;;;;;2.62;1.27;;;;;;;31.51;28.76;99327.64;1767370;80;22256;-62
2022/06/24 10:13:32;;;;;;;3.17;1.00;;;;;;;31.54;28.84;99333.69;1771599;80;21511;-57
2022/06/24 10:16:01;;;;;;;1.87;1.37;;;;;;;31.56;29.03;99338.19;1727291;81;21140;-56
2022/06/24 10:18:38;;;;;;;4.35;1.90;;;;;;;31.81;28.83;99329.36;1759720;80;21115;-57
2022/06/24 10:21:06;;;;;;;1.85;1.30;;;;;;;32.10;29.42;99325.47;1780832;80;21050;-62
2022/06/24 10:23:49;;;;;;;3.80;1.00;;;;;;;32.36;29.14;99331.66;1779535;80;21086;-57
2022/06/24 10:26:30;;;;;;;3.25;1.07;;;;;;;32.82;28.88;99326.48;1789692;79;21076;-58
2022/06/24 10:29:05;;;;;;;2.25;1.10;;;;;;;33.37;27.91;99326.39;1766623;80;21760;-57
2022/06/24 10:31:49;;;;;;;3.55;1.27;;;;;;;33.99;27.05;99321.72;1774214;80;21051;-59
2022/06/24 10:34:31;;;;;;;1.75;1.20;;;;;;;34.58;25.76;99323.53;1781864;79;21039;-64
2022/06/24 10:37:12;;;;;;;1.75;1.00;;;;;;;34.63;25.89;99328.64;1777197;80;21059;-58
2022/06/24 10:39:48;;;;;;;1.62;1.20;;;;;;;34.64;26.29;99328.84;1711220;82;21004;-58
2022/06/24 10:42:20;;;;;;;2.37;1.20;;;;;;;34.89;25.71;99319.64;1759567;80;21258;-58
2022/06/24 10:45:01;;;;;;;2.15;1.10;;;;;;;34.98;25.23;99318.80;1781886;80;21520;-58
2022/06/24 10:47:38;;;;;;;2.83;1.77;;;;;;;34.94;25.20;99316.63;1764475;80;21070;-64
2022/06/24 10:50:11;;;;;;;2.33;0.95;;;;;;;34.69;25.15;99327.73;1770034;80;21793;-60
2022/06/24 10:52:53;;;;;;;2.27;1.12;;;;;;;34.42;25.17;99326.38;1732547;81;21053;-57
2022/06/24 10:55:28;;;;;;;3.25;1.20;;;;;;;34.24;25.88;99324.00;1782132;80;21155;-59
2022/06/24 10:58:10;;;;;;;1.85;1.07;;;;;;;34.04;26.08;99330.86;1776689;80;21342;-58
2022/06/24 11:00:48;;;;;;;1.75;1.17;;;;;;;33.74;27.01;99332.09;1777864;79;20899;-57
2022/06/24 11:03:16;;;;;;;2.77;1.17;;;;;;;33.31;27.44;99337.30;1776406;79;21066;-59
2022/06/24 11:05:45;;;;;;;3.58;1.30;;;;;;;32.89;28.00;99329.33;1769376;80;21087;-58
2022/06/24 11:08:19;;;;;;;2.50;1.15;;;;;;;32.46;28.67;99341.91;1775734;80;21243;-57
2022/06/24 11:10:49;;;;;;;2.25;1.07;;;;;;;32.20;28.82;99346.52;1767901;80;21610;-64
2022/06/24 11:13:17;;;;;;;2.65;1.35;;;;;;;31.97;29.60;99349.59;1771514;80;21048;-59
2022/06/24 11:15:56;;;;;;;2.62;1.25;;;;;;;31.77;29.35;99352.74;1775880;80;21082;-57
2022/06/24 11:18:27;;;;;;;2.10;1.20;;;;;;;31.52;29.56;99350.78;1771553;80;21028;-57
2022/06/24 11:21:04;;;;;;;2.90;1.30;;;;;;;31.39;29.82;99358.69;1782626;80;21476;-58
2022/06/24 11:23:38;;;;;;;2.83;1.25;;;;;;;31.38;30.38;99363.30;1771483;80;21454;-58
2022/06/24 11:26:20;;;;;;;2.15;1.20;;;;;;;31.43;30.35;99358.22;1778531;80;21529;-57
2022/06/24 11:28:52;;;;;;;1.98;1.30;;;;;;;31.66;30.62;99363.25;1754182;80;21372;-62
2022/06/24 11:31:24;;;;;;;1.95;1.20;;;;;;;32.01;30.41;99365.29;1763100;80;21046;-57
2022/06/24 11:34:04;;;;;;;3.27;1.30;;;;;;;32.34;29.38;99362.80;1766210;80;21252;-57
2022/06/24 11:36:32;;;;;;;3.45;1.17;;;;;;;32.81;28.91;99361.94;1760666;80;26907;-58
2022/06/24 11:39:06;;;;;;;3.62;1.10;;;;;;;33.23;27.59;99363.39;1746845;81;21083;-57
2022/06/24 11:41:37;;;;;;;3.00;1.10;;;;;;;33.37;27.08;99360.94;1756731;80;21031;-58
2022/06/24 11:44:04;;;;;;;2.37;1.35;;;;;;;33.49;26.91;99362.75;1761145;80;21533;-58
2022/06/24 11:46:34;;;;;;;3.12;1.05;;;;;;;33.45;27.03;99367.25;1749752;80;21255;-58
2022/06/24 11:49:11;;;;;;;2.00;1.10;;;;;;;33.40;26.63;99366.20;1772997;80;20920;-57
2022/06/24 11:51:40;;;;;;;2.00;1.12;;;;;;;33.11;26.54;99360.81;1767735;80;21009;-63
2022/06/24 11:54:08;;;;;;;4.28;1.75;;;;;;;32.85;26.77;99362.80;1783855;80;21046;-58